Terminal Aerodrome Forecast
Issued by NWS

Home | Current Version | Previous Version | Text Only | Print | Product List | Glossary Off
Versions: 1 2 3 4 5 6 7 8 9 10 11 12 13 14 15 16 17 18 19

603
FTUS43 KBIS 261733
TAFJMS
TAF
KJMS 261733Z 2618/2718 28012KT P6SM SCT025 SCT050
     FM262300 25009KT P6SM VCTS SCT060CB SCT100
     FM270300 01006KT P6SM SCT030 BKN070
     FM271200 36004KT P6SM SCT020 SCT035 BKN060
     FM271600 04007KT P6SM SCT035 SCT100=

USA.gov is the U.S. government's official web portal to all federal, state and local government web resources and services.